Time;durP1;ratioP1;P1;durP2;ratioP2;P2;SDS_P1;SDS_P2;PMS_P1;PMS_P2;Temp;Humidity;BMP_temperature;BMP_pressure;BME280_temperature;BME280_humidity;BME280_pressure;Samples;Min_cycle;Max_cycle;Signal;HPM_P1;HPM_P2
2022/02/08 00:01:24;;;;;;;10.67;3.53;;;1.30;99.90;;;;;;5054311;28;20061;-67
2022/02/08 00:03:51;;;;;;;16.17;2.83;;;1.40;99.90;;;;;;5054157;28;20053;-66
2022/02/08 00:06:36;;;;;;;12.53;2.90;;;1.50;99.90;;;;;;5053794;28;20041;-67
2022/02/08 00:09:04;;;;;;;10.27;2.77;;;1.50;99.90;;;;;;5054019;28;20079;-67
2022/02/08 00:11:32;;;;;;;7.87;2.80;;;1.60;99.90;;;;;;5053966;28;20053;-67
2022/02/08 00:13:58;;;;;;;9.00;2.30;;;1.50;99.90;;;;;;5053946;28;20080;-67
2022/02/08 00:16:25;;;;;;;9.13;2.67;;;1.50;99.90;;;;;;5053679;28;20394;-67
2022/02/08 00:18:52;;;;;;;9.33;2.77;;;1.50;99.90;;;;;;5053792;28;20085;-66
2022/02/08 00:21:21;;;;;;;11.00;2.53;;;1.60;99.90;;;;;;5053980;28;20088;-67
2022/02/08 00:23:48;;;;;;;10.53;3.13;;;1.60;99.90;;;;;;5053755;28;20099;-68
2022/02/08 00:26:15;;;;;;;6.27;2.60;;;1.60;99.90;;;;;;5053516;28;20490;-67
2022/02/08 00:28:43;;;;;;;9.40;2.20;;;1.80;99.90;;;;;;5053729;28;20128;-67
2022/02/08 00:31:10;;;;;;;14.43;3.80;;;1.80;99.90;;;;;;5053548;28;20135;-67
2022/02/08 00:33:37;;;;;;;7.37;2.07;;;1.80;99.90;;;;;;5053475;28;20135;-67
2022/02/08 00:36:05;;;;;;;12.83;3.03;;;1.90;99.90;;;;;;5053186;28;20560;-67
2022/02/08 00:38:35;;;;;;;8.97;2.53;;;1.90;99.90;;;;;;5053380;28;20544;-67
2022/02/08 00:41:02;;;;;;;10.90;3.30;;;2.00;99.90;;;;;;5053488;28;20132;-67
2022/02/08 00:43:35;;;;;;;13.00;2.80;;;2.10;99.90;;;;;;5053239;28;20049;-66
2022/02/08 00:46:07;;;;;;;8.53;2.80;;;2.10;99.90;;;;;;5053366;28;20061;-67
2022/02/08 00:48:40;;;;;;;10.30;2.70;;;2.20;99.90;;;;;;5053531;28;20482;-67
2022/02/08 00:51:07;;;;;;;10.63;2.53;;;2.20;99.90;;;;;;5053327;28;20732;-67
2022/02/08 00:53:36;;;;;;;12.70;3.47;;;2.20;99.90;;;;;;5053772;28;20139;-67
2022/02/08 00:56:03;;;;;;;11.87;2.77;;;2.30;99.90;;;;;;5052574;28;20138;-67
2022/02/08 00:58:30;;;;;;;15.30;3.27;;;2.30;99.90;;;;;;5053289;28;20132;-67
2022/02/08 01:00:58;;;;;;;12.13;2.43;;;2.20;99.90;;;;;;5053368;28;20144;-67
2022/02/08 01:03:25;;;;;;;14.67;3.00;;;2.10;99.90;;;;;;5053137;28;20056;-67
2022/02/08 01:06:03;;;;;;;14.20;2.80;;;2.10;99.90;;;;;;5052913;28;20135;-67
2022/02/08 01:08:32;;;;;;;7.47;2.30;;;2.20;99.90;;;;;;5053144;28;20415;-67
2022/02/08 01:11:02;;;;;;;8.87;2.27;;;2.10;99.90;;;;;;5053215;28;20053;-67
2022/02/08 01:13:29;;;;;;;10.60;2.40;;;2.30;99.90;;;;;;5052755;28;20088;-67
2022/02/08 01:15:57;;;;;;;12.53;2.50;;;2.30;99.90;;;;;;5052853;28;20089;-67
2022/02/08 01:18:25;;;;;;;10.23;2.30;;;2.50;99.90;;;;;;5052670;28;20509;-67
2022/02/08 01:20:52;;;;;;;11.03;2.90;;;2.50;99.90;;;;;;5052985;28;20536;-67
2022/02/08 01:23:19;;;;;;;13.83;2.90;;;2.70;99.90;;;;;;5052729;28;20151;-67
2022/02/08 01:25:50;;;;;;;10.67;2.50;;;2.70;99.90;;;;;;5052574;28;20143;-67
2022/02/08 01:28:27;;;;;;;13.67;3.13;;;2.80;99.90;;;;;;5052567;28;20052;-67
2022/02/08 01:31:01;;;;;;;14.33;2.97;;;2.80;99.90;;;;;;5052906;28;20155;-67
2022/02/08 01:36:38;;;;;;;11.20;2.50;;;2.80;99.90;;;;;;5052059;28;20045;-67
2022/02/08 01:39:13;;;;;;;13.10;2.10;;;2.80;99.90;;;;;;5052461;28;20049;-67
2022/02/08 01:44:40;;;;;;;10.73;2.40;;;2.90;99.90;;;;;;5047453;28;20044;-67
2022/02/08 01:47:24;;;;;;;10.93;2.77;;;2.90;99.90;;;;;;5052922;28;20148;-67
2022/02/08 01:50:00;;;;;;;7.33;2.50;;;2.80;99.90;;;;;;5053648;28;20056;-67
2022/02/08 01:52:27;;;;;;;10.13;2.33;;;2.80;99.90;;;;;;5052971;28;20390;-67
2022/02/08 01:54:55;;;;;;;9.23;2.80;;;2.90;99.90;;;;;;5052519;28;20135;-67
2022/02/08 01:57:23;;;;;;;11.50;2.13;;;2.90;99.90;;;;;;5052744;28;20084;-67
2022/02/08 01:59:52;;;;;;;11.47;2.33;;;2.90;99.90;;;;;;5052778;28;20115;-67
2022/02/08 02:02:19;;;;;;;13.00;2.10;;;2.90;99.90;;;;;;5053619;28;20143;-67
2022/02/08 02:04:47;;;;;;;11.20;2.50;;;2.90;99.90;;;;;;5052089;28;20135;-67
2022/02/08 02:07:15;;;;;;;8.13;2.10;;;2.80;99.90;;;;;;5051754;28;20061;-67
2022/02/08 02:09:45;;;;;;;11.23;2.27;;;2.70;99.90;;;;;;5051886;28;20458;-67
2022/02/08 02:12:12;;;;;;;10.47;2.40;;;2.70;99.90;;;;;;5052026;28;20057;-67
2022/02/08 02:14:41;;;;;;;9.03;2.40;;;2.80;99.90;;;;;;5056095;28;20045;-67
2022/02/08 02:17:10;;;;;;;11.60;2.13;;;2.70;99.90;;;;;;5055963;28;20135;-67
2022/02/08 02:19:38;;;;;;;13.17;2.77;;;2.70;99.90;;;;;;5054617;28;20048;-67
2022/02/08 02:22:06;;;;;;;13.53;2.07;;;2.90;99.90;;;;;;5051945;28;20135;-67
2022/02/08 02:24:35;;;;;;;12.43;3.20;;;2.80;99.90;;;;;;5051534;28;20052;-67
2022/02/08 02:27:05;;;;;;;10.57;2.10;;;2.80;99.90;;;;;;5051452;28;20048;-67
2022/02/08 02:29:32;;;;;;;6.70;1.93;;;2.70;99.90;;;;;;5051541;28;20459;-67
2022/02/08 02:32:00;;;;;;;10.97;2.37;;;2.70;99.90;;;;;;5051897;28;20103;-67
2022/02/08 02:34:27;;;;;;;13.17;2.93;;;2.80;99.90;;;;;;5051318;28;20131;-67
2022/02/08 02:36:55;;;;;;;8.83;2.30;;;2.80;99.90;;;;;;5051321;28;20052;-67
2022/02/08 02:39:23;;;;;;;9.80;2.17;;;2.80;99.90;;;;;;5051494;28;20079;-67
2022/02/08 02:41:53;;;;;;;11.03;2.30;;;2.80;99.90;;;;;;5051527;28;20487;-67
2022/02/08 02:44:21;;;;;;;12.83;3.03;;;2.80;99.90;;;;;;5051324;28;20087;-67
2022/02/08 02:46:48;;;;;;;9.87;2.40;;;2.80;99.90;;;;;;5051391;28;20471;-67
2022/02/08 02:49:16;;;;;;;7.63;1.90;;;2.90;99.90;;;;;;5051558;28;20072;-67
2022/02/08 02:51:43;;;;;;;6.20;2.03;;;3.00;99.90;;;;;;5051375;28;20095;-67
2022/02/08 02:54:15;;;;;;;11.60;2.20;;;2.90;99.90;;;;;;5051498;28;20106;-67
2022/02/08 02:56:42;;;;;;;10.47;2.17;;;2.80;99.90;;;;;;5051272;28;20460;-67
2022/02/08 02:59:11;;;;;;;11.13;2.20;;;2.80;99.90;;;;;;5051028;28;20572;-67
2022/02/08 03:01:46;;;;;;;10.00;2.27;;;2.80;99.90;;;;;;5051271;28;20106;-67
2022/02/08 03:04:34;;;;;;;11.97;2.17;;;2.80;99.90;;;;;;5051424;28;20480;-68
2022/02/08 03:18:29;;;;;;;14.20;2.77;;;2.60;99.90;;;;;;5051051;28;20187;-67
2022/02/08 03:20:56;;;;;;;11.20;3.10;;;2.50;99.90;;;;;;5054996;28;20144;-67
2022/02/08 03:23:23;;;;;;;9.67;3.23;;;2.40;99.90;;;;;;5054857;28;20131;-67
2022/02/08 03:25:50;;;;;;;16.20;3.03;;;2.40;99.90;;;;;;5055132;28;20137;-67
2022/02/08 03:28:17;;;;;;;14.20;3.73;;;2.40;99.90;;;;;;5054805;28;20787;-67
2022/02/08 03:30:45;;;;;;;15.97;3.00;;;2.40;99.90;;;;;;5054897;28;20136;-67
2022/02/08 03:33:12;;;;;;;10.43;3.17;;;2.40;99.90;;;;;;5054687;28;20509;-67
2022/02/08 03:35:39;;;;;;;13.63;2.60;;;2.40;99.90;;;;;;5054396;28;20103;-67
2022/02/08 03:38:08;;;;;;;11.67;2.43;;;2.40;99.90;;;;;;5054580;28;20053;-67
2022/02/08 03:40:42;;;;;;;7.17;2.27;;;2.40;99.90;;;;;;5054442;28;20049;-67
2022/02/08 03:43:26;;;;;;;9.10;2.47;;;2.40;99.90;;;;;;5054832;28;20084;-67
2022/02/08 03:45:58;;;;;;;14.57;2.70;;;2.40;99.90;;;;;;5054530;28;20057;-67
2022/02/08 03:48:27;;;;;;;9.03;2.57;;;2.50;99.90;;;;;;5054391;28;20061;-67
2022/02/08 03:50:56;;;;;;;8.27;2.40;;;2.50;99.90;;;;;;5054476;28;20413;-67
2022/02/08 03:53:26;;;;;;;11.00;2.47;;;2.50;99.90;;;;;;5054353;28;20060;-67
2022/02/08 03:55:53;;;;;;;13.03;2.77;;;2.50;99.90;;;;;;5054409;28;20059;-67
2022/02/08 03:58:20;;;;;;;11.63;2.63;;;2.50;99.90;;;;;;5054247;28;20088;-67
2022/02/08 04:01:02;;;;;;;10.73;2.23;;;2.60;99.90;;;;;;5054761;28;20088;-67
2022/02/08 04:03:34;;;;;;;11.10;2.70;;;2.60;99.90;;;;;;5054432;28;20060;-67
2022/02/08 04:06:02;;;;;;;9.60;2.60;;;2.60;99.90;;;;;;5054219;28;20250;-67
2022/02/08 04:08:31;;;;;;;13.90;2.20;;;2.60;99.90;;;;;;5054390;28;20053;-67
2022/02/08 04:10:59;;;;;;;9.00;2.03;;;2.60;99.90;;;;;;5054317;28;20056;-67
2022/02/08 04:13:31;;;;;;;15.87;3.20;;;2.60;99.90;;;;;;5155421;22;20394;-69
2022/02/08 04:16:06;;;;;;;17.97;3.10;;;2.60;99.90;;;;;;5054069;28;20053;-69
2022/02/08 04:32:22;;;;;;;10.97;2.40;;;2.80;99.90;;;;;;5054135;28;20511;-67
2022/02/08 04:35:08;;;;;;;9.33;2.33;;;2.90;99.90;;;;;;5054575;28;20096;-67
2022/02/08 04:43:19;;;;;;;11.57;2.27;;;2.90;99.90;;;;;;5054236;28;20497;-67
2022/02/08 04:45:51;;;;;;;11.17;2.47;;;2.90;99.90;;;;;;5053691;28;20163;-67
2022/02/08 04:48:29;;;;;;;9.40;2.07;;;2.90;99.90;;;;;;5054168;28;20091;-67
2022/02/08 04:51:10;;;;;;;13.97;3.10;;;2.90;99.90;;;;;;5054129;28;20045;-67
2022/02/08 04:53:42;;;;;;;12.87;2.87;;;2.90;99.90;;;;;;5053754;28;20416;-67
2022/02/08 04:56:17;;;;;;;10.27;2.20;;;3.00;99.90;;;;;;5053527;28;20052;-67
2022/02/08 04:58:50;;;;;;;12.93;3.20;;;3.00;99.90;;;;;;5053341;28;20053;-67
2022/02/08 05:01:22;;;;;;;16.97;2.27;;;3.00;99.90;;;;;;5053478;28;20052;-67
2022/02/08 05:43:00;;;;;;;11.07;2.00;;;3.20;99.90;;;;;;5051628;28;20067;-67
2022/02/08 05:45:31;;;;;;;8.80;1.60;;;3.30;99.90;;;;;;5052614;28;20060;-67
2022/02/08 05:48:01;;;;;;;13.67;2.13;;;3.30;99.90;;;;;;5052510;28;20424;-67
2022/02/08 05:50:40;;;;;;;13.87;3.07;;;3.30;99.90;;;;;;5053075;28;20136;-67
2022/02/08 05:53:16;;;;;;;6.03;1.83;;;3.30;99.90;;;;;;5052290;28;20067;-67
2022/02/08 05:55:44;;;;;;;15.63;2.43;;;3.30;99.90;;;;;;5051993;28;20057;-67
2022/02/08 05:58:11;;;;;;;12.93;3.10;;;3.30;99.90;;;;;;5052096;28;20087;-67
2022/02/08 06:00:39;;;;;;;13.50;3.83;;;3.30;99.90;;;;;;5052095;28;20623;-67
2022/02/08 06:03:07;;;;;;;15.40;2.33;;;3.30;99.90;;;;;;5052124;28;20049;-67
2022/02/08 06:05:34;;;;;;;8.37;1.83;;;3.30;99.90;;;;;;5052095;28;20110;-67
2022/02/08 06:08:01;;;;;;;8.80;2.93;;;3.30;99.90;;;;;;5052387;28;20052;-67
2022/02/08 06:10:29;;;;;;;9.67;2.37;;;3.20;99.90;;;;;;5052208;28;20053;-67
2022/02/08 06:12:58;;;;;;;10.67;2.73;;;3.20;99.90;;;;;;5052068;28;20122;-68
2022/02/08 06:15:26;;;;;;;10.33;2.73;;;3.30;99.90;;;;;;5051667;28;20111;-67
2022/02/08 06:17:55;;;;;;;14.63;2.33;;;3.30;99.90;;;;;;5052200;28;20057;-67
2022/02/08 06:20:23;;;;;;;7.23;1.60;;;3.20;99.90;;;;;;5051931;28;20053;-68
2022/02/08 06:22:50;;;;;;;11.57;2.63;;;3.30;99.90;;;;;;5051930;28;20139;-67
2022/02/08 06:25:18;;;;;;;11.37;2.10;;;3.30;99.90;;;;;;5051332;28;20132;-67
2022/02/08 06:27:49;;;;;;;11.30;3.20;;;3.30;99.90;;;;;;5052307;28;20382;-67
2022/02/08 06:30:18;;;;;;;10.93;2.93;;;3.30;99.90;;;;;;5052155;28;20512;-67
2022/02/08 06:32:45;;;;;;;11.47;2.83;;;3.30;99.90;;;;;;5052369;28;20053;-68
2022/02/08 06:35:17;;;;;;;11.10;2.07;;;3.30;99.90;;;;;;5051342;28;20084;-67
2022/02/08 06:37:43;;;;;;;13.37;2.40;;;3.30;99.90;;;;;;5051464;28;20135;-68
2022/02/08 06:40:12;;;;;;;10.23;2.27;;;3.30;99.90;;;;;;5051512;28;20561;-67
2022/02/08 06:42:40;;;;;;;9.03;2.17;;;3.30;99.90;;;;;;5051819;28;20123;-67
2022/02/08 06:45:09;;;;;;;11.80;2.40;;;3.40;99.90;;;;;;5051179;28;20497;-67
2022/02/08 06:47:37;;;;;;;12.53;2.90;;;3.40;99.90;;;;;;5051529;28;20127;-67
2022/02/08 06:50:05;;;;;;;8.40;2.30;;;3.40;99.90;;;;;;5051972;28;20053;-68
2022/02/08 06:52:33;;;;;;;14.93;2.30;;;3.40;99.90;;;;;;5051443;28;20148;-67
2022/02/08 06:55:01;;;;;;;9.47;2.00;;;3.40;99.90;;;;;;5053691;28;20473;-67
2022/02/08 06:57:30;;;;;;;14.43;4.10;;;3.40;99.90;;;;;;5056019;28;20129;-67
2022/02/08 07:00:02;;;;;;;14.53;3.03;;;3.40;99.90;;;;;;5055720;28;20110;-67
2022/02/08 07:02:29;;;;;;;13.20;3.10;;;3.50;99.90;;;;;;5055743;28;20057;-68
2022/02/08 07:04:57;;;;;;;8.87;2.70;;;3.40;99.90;;;;;;5055144;28;20049;-67
2022/02/08 07:07:24;;;;;;;13.60;2.97;;;3.50;99.90;;;;;;5055725;28;20132;-67
2022/02/08 07:09:51;;;;;;;13.80;2.80;;;3.60;99.90;;;;;;5055471;28;20099;-67
2022/02/08 07:12:18;;;;;;;9.20;3.43;;;3.60;99.90;;;;;;5055301;28;20139;-67
2022/02/08 07:14:46;;;;;;;11.63;3.50;;;3.60;99.90;;;;;;5055197;28;20132;-67
2022/02/08 07:17:13;;;;;;;10.77;2.70;;;3.60;99.90;;;;;;5055636;28;20064;-67
2022/02/08 07:19:40;;;;;;;6.77;2.00;;;3.60;99.90;;;;;;5055356;28;20049;-67
2022/02/08 07:22:08;;;;;;;9.67;2.67;;;3.60;99.90;;;;;;5055491;28;20513;-68
2022/02/08 07:24:35;;;;;;;12.43;2.57;;;3.60;99.90;;;;;;5055153;28;20148;-67
2022/02/08 07:27:02;;;;;;;14.07;3.17;;;3.60;99.90;;;;;;5055146;28;20107;-67
2022/02/08 07:29:29;;;;;;;11.20;2.73;;;3.60;99.90;;;;;;5055352;28;20460;-67
2022/02/08 07:31:59;;;;;;;9.80;2.33;;;3.60;99.90;;;;;;5054951;28;20060;-67
2022/02/08 07:34:31;;;;;;;12.47;2.80;;;3.60;99.90;;;;;;5055363;28;20057;-67
2022/02/08 07:37:06;;;;;;;17.43;3.43;;;3.60;99.90;;;;;;5055036;28;20489;-67
2022/02/08 07:39:39;;;;;;;18.43;3.73;;;3.60;99.90;;;;;;5054809;28;20532;-67
2022/02/08 07:42:08;;;;;;;11.87;3.50;;;3.60;99.90;;;;;;5055283;28;20053;-67
2022/02/08 07:44:35;;;;;;;16.73;3.50;;;3.60;99.90;;;;;;5054730;28;20139;-67
2022/02/08 07:47:02;;;;;;;13.47;2.70;;;3.60;99.90;;;;;;5054444;28;20071;-67
2022/02/08 07:49:31;;;;;;;12.77;2.87;;;3.60;99.90;;;;;;5054852;28;20409;-67
2022/02/08 07:51:58;;;;;;;14.70;2.93;;;3.60;99.90;;;;;;5054914;28;20175;-67
2022/02/08 07:54:25;;;;;;;10.67;2.53;;;3.60;99.90;;;;;;5054484;28;20102;-67
2022/02/08 07:56:53;;;;;;;15.13;2.87;;;3.60;99.90;;;;;;5054457;28;20088;-67
2022/02/08 07:59:20;;;;;;;16.83;2.83;;;3.70;99.90;;;;;;5054502;28;20136;-67
2022/02/08 08:01:47;;;;;;;11.83;2.70;;;3.70;99.90;;;;;;5054473;28;20053;-67
2022/02/08 08:04:14;;;;;;;12.43;2.80;;;3.80;99.90;;;;;;5054812;28;20056;-67
2022/02/08 08:06:41;;;;;;;9.10;2.47;;;3.80;99.90;;;;;;5052969;28;20143;-67
2022/02/08 08:09:08;;;;;;;12.07;2.70;;;3.90;99.90;;;;;;5054448;28;20127;-67
2022/02/08 08:11:38;;;;;;;7.17;2.00;;;3.90;99.90;;;;;;5054135;28;20467;-67
2022/02/08 08:14:08;;;;;;;13.43;2.70;;;3.90;99.90;;;;;;5054284;28;20056;-68
2022/02/08 08:16:52;;;;;;;14.33;2.87;;;3.90;99.90;;;;;;5054611;28;20055;-67
2022/02/08 08:19:23;;;;;;;13.00;2.43;;;3.90;99.90;;;;;;5054347;28;20057;-67
2022/02/08 08:21:51;;;;;;;9.77;2.63;;;3.90;99.90;;;;;;5054086;28;20136;-67
2022/02/08 08:24:18;;;;;;;7.20;2.00;;;3.90;99.90;;;;;;5053979;28;20594;-67
2022/02/08 08:26:45;;;;;;;12.13;2.67;;;3.90;99.90;;;;;;5053714;28;20137;-67
2022/02/08 08:29:14;;;;;;;7.93;2.27;;;4.00;99.90;;;;;;5053962;28;20131;-67
2022/02/08 08:31:40;;;;;;;11.57;3.40;;;4.00;99.90;;;;;;5053959;28;20087;-67
2022/02/08 08:34:07;;;;;;;7.20;2.40;;;4.00;99.90;;;;;;5053943;28;20128;-67
2022/02/08 08:36:34;;;;;;;11.03;2.37;;;4.00;99.90;;;;;;5053539;28;20464;-67
2022/02/08 08:39:03;;;;;;;11.77;2.33;;;4.00;99.90;;;;;;5053997;28;20520;-67
2022/02/08 08:41:35;;;;;;;8.47;2.67;;;4.00;99.90;;;;;;5053597;28;20049;-67
2022/02/08 08:44:39;;;;;;;9.20;2.00;;;4.00;99.90;;;;;;5053714;28;20483;-67
2022/02/08 08:50:05;;;;;;;9.67;2.60;;;4.00;99.90;;;;;;5053697;28;20520;-67
2022/02/08 08:52:36;;;;;;;6.50;1.97;;;4.10;99.90;;;;;;5054440;28;20147;-67
2022/02/08 08:55:05;;;;;;;10.23;3.27;;;4.10;99.90;;;;;;5053639;28;20092;-67
2022/02/08 08:57:31;;;;;;;7.13;2.33;;;4.10;99.90;;;;;;5053462;28;20424;-67
2022/02/08 08:59:58;;;;;;;6.10;1.97;;;4.20;99.90;;;;;;5053509;28;20131;-67
2022/02/08 09:02:27;;;;;;;7.50;2.63;;;4.10;99.90;;;;;;5053268;28;20088;-67
2022/02/08 09:04:55;;;;;;;9.40;1.80;;;4.20;99.90;;;;;;5053237;28;20087;-67
2022/02/08 09:07:22;;;;;;;9.03;2.60;;;4.20;99.90;;;;;;5053473;28;20083;-68
2022/02/08 09:09:55;;;;;;;7.50;1.90;;;4.20;99.90;;;;;;5053866;28;20445;-68
2022/02/08 09:12:27;;;;;;;5.70;1.73;;;4.10;99.90;;;;;;5053333;28;20059;-68
2022/02/08 09:20:49;;;;;;;3.50;1.37;;;4.20;99.90;;;;;;5045824;28;20049;-67
2022/02/08 09:26:27;;;;;;;8.20;2.30;;;4.20;99.90;;;;;;5052515;28;20497;-67
2022/02/08 09:28:57;;;;;;;8.50;1.70;;;4.20;99.90;;;;;;5053044;28;20056;-67
2022/02/08 09:31:24;;;;;;;6.27;1.73;;;4.30;99.90;;;;;;5053013;28;20453;-67
2022/02/08 09:33:53;;;;;;;7.50;1.87;;;4.30;99.90;;;;;;5052679;28;20517;-67
2022/02/08 09:36:24;;;;;;;6.87;1.80;;;4.30;99.90;;;;;;5052566;28;20160;-67
2022/02/08 09:38:51;;;;;;;4.73;2.20;;;4.30;99.90;;;;;;5053366;28;20057;-67
2022/02/08 09:41:21;;;;;;;4.07;1.50;;;4.30;99.90;;;;;;5052204;28;20080;-67
2022/02/08 09:43:48;;;;;;;7.10;2.00;;;4.30;99.90;;;;;;5052619;28;20144;-67
2022/02/08 09:46:16;;;;;;;7.80;1.80;;;4.30;99.90;;;;;;5052095;28;20084;-67
2022/02/08 09:48:46;;;;;;;6.53;1.57;;;4.30;99.90;;;;;;5052378;28;20096;-67
2022/02/08 09:51:16;;;;;;;6.00;1.60;;;4.30;99.90;;;;;;5052251;28;20110;-67
2022/02/08 09:53:44;;;;;;;3.60;1.70;;;4.40;99.90;;;;;;5052093;28;20099;-67
2022/02/08 09:56:12;;;;;;;4.60;1.83;;;4.30;99.90;;;;;;5052014;28;20048;-67
2022/02/08 09:58:40;;;;;;;8.70;2.10;;;4.30;99.90;;;;;;5052085;28;20132;-67
2022/02/08 10:01:10;;;;;;;5.07;1.73;;;4.30;99.90;;;;;;5052183;28;20183;-67
2022/02/08 10:03:38;;;;;;;6.50;1.90;;;4.40;99.90;;;;;;5052062;28;20416;-67
2022/02/08 10:06:05;;;;;;;3.15;1.42;;;4.40;99.90;;;;;;5051822;28;20497;-67
2022/02/08 10:08:33;;;;;;;5.17;1.80;;;4.40;99.90;;;;;;5052084;28;20132;-66
2022/02/08 10:11:00;;;;;;;4.93;1.57;;;4.40;99.90;;;;;;5052027;28;20055;-67
2022/02/08 10:13:41;;;;;;;6.03;1.70;;;4.30;99.90;;;;;;5052100;28;20552;-67
2022/02/08 10:19:26;;;;;;;7.22;1.70;;;4.30;99.90;;;;;;5052125;28;20472;-67
2022/02/08 10:22:04;;;;;;;8.20;2.35;;;4.40;99.90;;;;;;5051840;28;20048;-67
2022/02/08 10:24:36;;;;;;;8.82;2.10;;;4.50;99.90;;;;;;5051645;28;20515;-68
2022/02/08 10:27:18;;;;;;;9.70;2.90;;;4.50;99.90;;;;;;5051572;28;20588;-67
2022/02/08 10:29:59;;;;;;;7.43;1.57;;;4.50;99.90;;;;;;5051404;28;20093;-67
2022/02/08 10:38:07;;;;;;;11.88;2.15;;;4.60;99.90;;;;;;5051961;28;20111;-67
2022/02/08 10:40:38;;;;;;;12.00;2.20;;;4.60;99.90;;;;;;5051842;28;20083;-67
2022/02/08 10:43:09;;;;;;;11.40;2.77;;;4.70;99.90;;;;;;5052101;28;20057;-67
2022/02/08 10:45:38;;;;;;;10.35;2.53;;;4.70;99.90;;;;;;5051619;28;20155;-67
2022/02/08 10:48:07;;;;;;;11.40;2.87;;;4.70;99.90;;;;;;5051867;28;20132;-67
2022/02/08 10:50:39;;;;;;;10.45;3.15;;;4.70;99.90;;;;;;5051681;28;20057;-67
2022/02/08 10:53:08;;;;;;;11.50;2.65;;;4.70;99.90;;;;;;5051598;28;20056;-67
2022/02/08 10:55:45;;;;;;;20.73;2.95;;;4.80;99.90;;;;;;5051459;28;20052;-67
2022/02/08 10:58:23;;;;;;;10.52;2.30;;;4.90;99.90;;;;;;5051472;28;20057;-67
2022/02/08 11:00:58;;;;;;;9.48;2.28;;;4.80;99.90;;;;;;5051760;28;20056;-67
2022/02/08 11:03:37;;;;;;;11.23;2.50;;;4.80;99.90;;;;;;5051370;28;20516;-67
2022/02/08 11:06:16;;;;;;;13.40;3.15;;;4.90;99.90;;;;;;5051443;28;20378;-67
2022/02/08 11:09:01;;;;;;;11.48;2.60;;;4.90;99.90;;;;;;5051450;28;20092;-67
2022/02/08 11:11:50;;;;;;;8.38;2.65;;;4.90;99.90;;;;;;5051414;28;20084;-67
2022/02/08 11:14:31;;;;;;;8.63;2.13;;;4.90;99.90;;;;;;5051825;28;20080;-67
2022/02/08 11:19:53;;;;;;;7.57;2.10;;;4.90;99.90;;;;;;5051754;28;20412;-67
2022/02/08 11:22:32;;;;;;;7.97;1.90;;;4.90;99.90;;;;;;5051376;28;20048;-67
2022/02/08 11:25:05;;;;;;;6.93;2.00;;;5.00;99.90;;;;;;5051177;28;20053;-67
2022/02/08 11:27:40;;;;;;;9.27;2.53;;;4.90;99.90;;;;;;5051661;28;20148;-67
2022/02/08 11:30:13;;;;;;;7.80;1.95;;;4.90;99.90;;;;;;5051820;28;20056;-67
2022/02/08 11:32:53;;;;;;;9.27;1.85;;;4.90;99.90;;;;;;5052141;28;20053;-67
2022/02/08 11:46:52;;;;;;;6.90;2.28;;;5.00;99.90;;;;;;5051539;28;20044;-67
2022/02/08 11:52:24;;;;;;;7.38;2.30;;;5.00;99.90;;;;;;5049304;28;20468;-68
2022/02/08 11:55:15;;;;;;;8.55;1.98;;;5.10;99.90;;;;;;5054784;28;20500;-68
2022/02/08 12:00:37;;;;;;;6.53;1.80;;;5.10;99.90;;;;;;5054597;28;20041;-68
2022/02/08 12:03:41;;;;;;;15.88;2.47;;;5.10;99.90;;;;;;5054720;28;20052;-68
2022/02/08 12:06:28;;;;;;;13.27;2.17;;;5.20;99.90;;;;;;5053859;28;20053;-68
2022/02/08 12:09:00;;;;;;;6.45;1.52;;;5.30;99.90;;;;;;5054667;28;20077;-68
2022/02/08 12:11:52;;;;;;;12.52;2.30;;;5.30;99.90;;;;;;5055077;28;20052;-68
2022/02/08 12:31:20;;;;;;;6.85;1.63;;;5.40;99.90;;;;;;5054360;28;20041;-68
2022/02/08 12:34:03;;;;;;;7.95;1.80;;;5.50;99.90;;;;;;5053613;28;20053;-68
2022/02/08 12:48:28;;;;;;;8.10;2.42;;;5.50;99.90;;;;;;5052989;28;20044;-68
2022/02/08 12:54:10;;;;;;;7.63;1.70;;;5.70;99.90;;;;;;5052767;28;20081;-67
2022/02/08 12:56:46;;;;;;;14.10;2.13;;;5.70;99.90;;;;;;5053125;28;20087;-67
2022/02/08 12:59:36;;;;;;;6.83;2.53;;;5.70;99.90;;;;;;5053520;28;20115;-67
2022/02/08 13:02:20;;;;;;;7.43;2.22;;;5.80;99.90;;;;;;5053339;28;20063;-67
2022/02/08 13:05:02;;;;;;;13.05;3.03;;;5.80;99.90;;;;;;5053225;28;20063;-67
2022/02/08 14:03:54;;;;;;;13.07;2.63;;;6.20;99.90;;;;;;5009982;28;20713;-67
2022/02/08 14:06:24;;;;;;;6.72;2.40;;;6.20;99.90;;;;;;5042885;28;20057;-67
2022/02/08 14:09:14;;;;;;;6.50;2.05;;;6.10;99.90;;;;;;5052463;28;21085;-67
2022/02/08 14:12:07;;;;;;;5.45;2.47;;;6.10;99.90;;;;;;5052610;28;20053;-66
2022/02/08 14:14:45;;;;;;;8.57;2.88;;;6.10;99.90;;;;;;5051879;28;20390;-67
2022/02/08 14:20:46;;;;;;;7.18;1.55;;;6.10;99.90;;;;;;5051972;28;20076;-67
2022/02/08 14:23:27;;;;;;;5.03;1.70;;;6.20;99.90;;;;;;5051684;28;20125;-67
2022/02/08 14:29:13;;;;;;;6.78;2.05;;;6.20;99.90;;;;;;5051750;28;20049;-67
2022/02/08 14:31:55;;;;;;;5.65;2.00;;;6.20;99.90;;;;;;5015801;28;20044;-67
2022/02/08 14:34:55;;;;;;;7.88;2.50;;;6.20;99.90;;;;;;5051904;28;20076;-67
2022/02/08 15:05:32;;;;;;;4.78;1.50;;;6.40;99.90;;;;;;5051361;28;20485;-67
2022/02/08 15:08:09;;;;;;;7.00;1.88;;;6.50;99.90;;;;;;5051551;28;20162;-67
2022/02/08 15:10:40;;;;;;;7.43;1.88;;;6.50;99.90;;;;;;5051700;28;20120;-67
2022/02/08 15:13:09;;;;;;;8.07;1.80;;;6.50;99.90;;;;;;5051674;28;20052;-67
2022/02/08 15:15:47;;;;;;;7.00;1.75;;;6.40;99.90;;;;;;5052895;28;20053;-67
2022/02/08 15:18:14;;;;;;;5.70;1.52;;;6.40;99.90;;;;;;5055660;28;20053;-67
2022/02/08 15:20:42;;;;;;;6.97;1.73;;;6.50;99.90;;;;;;5055598;28;20135;-67
2022/02/08 15:23:14;;;;;;;11.25;2.42;;;6.50;99.90;;;;;;5055278;28;20485;-67
2022/02/08 15:25:41;;;;;;;4.35;1.33;;;6.50;99.90;;;;;;5055028;28;20088;-67
2022/02/08 15:28:08;;;;;;;6.60;1.50;;;6.50;99.90;;;;;;5055322;28;20081;-67
2022/02/08 15:30:36;;;;;;;7.38;2.47;;;6.50;99.90;;;;;;5055623;28;20053;-67
2022/02/08 15:33:07;;;;;;;5.85;1.48;;;6.50;99.90;;;;;;5055427;28;20052;-67
2022/02/08 15:35:35;;;;;;;5.95;1.45;;;6.40;99.90;;;;;;5054885;28;20060;-68
2022/02/08 15:38:05;;;;;;;9.43;1.70;;;6.40;99.90;;;;;;5055030;28;20109;-68
2022/02/08 15:40:32;;;;;;;7.05;1.88;;;6.40;99.90;;;;;;5055389;28;20053;-68
2022/02/08 15:42:59;;;;;;;5.95;1.95;;;6.40;99.90;;;;;;5054887;28;20132;-68
2022/02/08 15:45:30;;;;;;;8.50;1.60;;;6.40;99.90;;;;;;5055881;28;20113;-68
2022/02/08 15:47:59;;;;;;;3.28;1.42;;;6.40;99.90;;;;;;5055253;28;20075;-71
2022/02/08 15:50:33;;;;;;;6.63;1.80;;;6.40;99.90;;;;;;5055060;28;20057;-68
2022/02/08 15:53:12;;;;;;;3.67;1.77;;;6.30;99.90;;;;;;5055185;28;20056;-68
2022/02/08 15:55:50;;;;;;;5.97;1.80;;;6.30;99.90;;;;;;5056086;28;20505;-68
2022/02/08 16:00:06;;;;;;;3.78;1.42;;;6.40;99.90;;;;;;5055423;28;20136;-68
2022/02/08 16:01:26;;;;;;;4.45;1.25;;;6.40;99.90;;;;;;5056094;28;20481;-68
2022/02/08 16:09:39;;;;;;;5.57;1.75;;;6.30;99.90;;;;;;5013076;28;20134;-68
2022/02/08 16:15:07;;;;;;;4.28;1.30;;;6.40;99.90;;;;;;5045902;28;20045;-65
2022/02/08 16:17:42;;;;;;;5.13;1.70;;;6.40;99.90;;;;;;5054737;28;20151;-66
2022/02/08 16:20:18;;;;;;;5.63;1.50;;;6.40;99.90;;;;;;5055141;28;20056;-66
2022/02/08 16:25:38;;;;;;;4.13;1.40;;;6.30;99.90;;;;;;5021052;28;20154;-66
2022/02/08 16:28:27;;;;;;;6.65;1.73;;;6.30;99.90;;;;;;5054642;28;20056;-66
2022/02/08 16:31:26;;;;;;;7.45;2.35;;;6.30;99.90;;;;;;5055354;28;20082;-66
2022/02/08 16:51:27;;;;;;;4.28;1.42;;;6.30;99.90;;;;;;5054805;28;20049;-66
2022/02/08 16:53:41;;;;;;;6.63;1.95;;;6.30;99.90;;;;;;5054033;28;20045;-66
2022/02/08 16:56:25;;;;;;;5.43;1.95;;;6.20;99.90;;;;;;5054739;28;20405;-68
2022/02/08 16:58:54;;;;;;;5.32;1.48;;;6.20;99.90;;;;;;5054898;28;20524;-68
2022/02/08 17:01:26;;;;;;;5.85;1.80;;;6.20;99.90;;;;;;5054578;28;20055;-66
2022/02/08 17:03:53;;;;;;;6.25;1.92;;;6.20;99.90;;;;;;5055453;28;20045;-66
2022/02/08 17:06:22;;;;;;;4.47;2.00;;;6.20;99.90;;;;;;5054391;28;20139;-66
2022/02/08 17:08:56;;;;;;;5.05;2.03;;;6.10;99.90;;;;;;5054209;28;20136;-66
2022/02/08 17:11:32;;;;;;;5.70;1.88;;;6.10;99.90;;;;;;5054193;28;20064;-66
2022/02/08 17:17:00;;;;;;;8.88;2.10;;;6.00;99.90;;;;;;5060008;28;20455;-66
2022/02/08 17:19:52;;;;;;;6.18;1.80;;;6.10;99.90;;;;;;5053941;28;20576;-66
2022/02/08 17:47:40;;;;;;;6.28;3.22;;;6.00;99.90;;;;;;5053642;28;20051;-66
2022/02/08 17:50:10;;;;;;;6.43;2.63;;;6.10;99.90;;;;;;5053686;28;20056;-66
2022/02/08 17:52:37;;;;;;;4.20;2.03;;;6.10;99.90;;;;;;5053101;28;20136;-66
2022/02/08 17:55:05;;;;;;;6.57;2.40;;;6.10;99.90;;;;;;5052659;28;20095;-66
2022/02/08 17:57:32;;;;;;;5.88;2.35;;;6.10;99.90;;;;;;5053344;28;20053;-66
2022/02/08 17:59:59;;;;;;;7.35;2.47;;;6.10;99.90;;;;;;5053218;28;20131;-67
2022/02/08 18:02:26;;;;;;;7.05;2.85;;;6.10;99.90;;;;;;5052770;28;20133;-66
2022/02/08 18:04:56;;;;;;;7.35;3.08;;;6.20;99.90;;;;;;5052835;28;20045;-66
2022/02/08 18:07:25;;;;;;;7.63;3.17;;;6.20;99.90;;;;;;5053319;28;20413;-66
2022/02/08 18:09:53;;;;;;;5.65;2.47;;;6.10;99.90;;;;;;5053652;28;20068;-66
2022/02/08 18:12:22;;;;;;;10.18;3.00;;;6.10;99.90;;;;;;5053020;28;20555;-67